Time;durP1;ratioP1;P1;durP2;ratioP2;P2;SDS_P1;SDS_P2;PMS_P1;PMS_P2;Temp;Humidity;BMP_temperature;BMP_pressure;BME280_temperature;BME280_humidity;BME280_pressure;Samples;Min_cycle;Max_cycle;Signal;HPM_P1;HPM_P2
2023/05/21 00:00:24;;;;;;;24.30;12.85;;;;;;;15.25;100.00;98349.56;5036960;28;20029;-77
2023/05/21 00:02:50;;;;;;;17.50;12.10;;;;;;;15.32;100.00;98372.81;5031955;28;20467;-78
2023/05/21 00:05:17;;;;;;;18.92;12.25;;;;;;;15.28;100.00;98362.69;5062199;28;20044;-77
2023/05/21 00:07:43;;;;;;;18.55;12.38;;;;;;;15.23;100.00;98351.69;5040862;28;20009;-77
2023/05/21 00:10:08;;;;;;;20.13;13.20;;;;;;;15.24;100.00;98350.59;5041382;28;20174;-77
2023/05/21 00:12:34;;;;;;;18.35;12.25;;;;;;;15.31;100.00;98365.72;5056544;28;20029;-77
2023/05/21 00:15:00;;;;;;;17.55;12.38;;;;;;;15.40;100.00;98382.50;5038889;28;20032;-77
2023/05/21 00:17:26;;;;;;;17.73;12.20;;;;;;;15.33;100.00;98373.69;5055738;28;20024;-77
2023/05/21 00:19:51;;;;;;;18.33;12.50;;;;;;;15.31;100.00;98373.09;5046006;28;20025;-77
2023/05/21 00:22:17;;;;;;;19.58;12.95;;;;;;;15.10;100.00;98355.53;5053385;28;20055;-77
2023/05/21 00:24:44;;;;;;;19.60;13.00;;;;;;;14.97;100.00;98343.03;5036875;28;20066;-76
2023/05/21 00:27:11;;;;;;;20.38;12.45;;;;;;;15.17;100.00;98377.16;5051328;28;20032;-77
2023/05/21 00:29:36;;;;;;;22.13;13.55;;;;;;;15.00;100.00;98358.88;5044396;28;20021;-77
2023/05/21 00:32:01;;;;;;;20.02;13.10;;;;;;;15.06;100.00;98357.94;5055046;28;20064;-77
2023/05/21 00:34:28;;;;;;;20.90;13.70;;;;;;;14.90;100.00;98334.16;5035378;28;20025;-77
2023/05/21 00:36:54;;;;;;;19.58;13.52;;;;;;;15.09;100.00;98357.44;5053222;28;20017;-77
2023/05/21 00:39:19;;;;;;;20.05;13.45;;;;;;;15.12;100.00;98356.94;5056691;28;20037;-77
2023/05/21 00:41:47;;;;;;;20.80;13.57;;;;;;;15.02;100.00;98342.31;5048646;28;20021;-77
2023/05/21 00:44:13;;;;;;;22.27;12.73;;;;;;;15.15;100.00;98366.53;5055415;28;20044;-77
2023/05/21 00:46:39;;;;;;;22.73;13.73;;;;;;;14.99;100.00;98340.06;5029471;28;20021;-77
2023/05/21 00:49:05;;;;;;;20.60;13.55;;;;;;;14.91;100.00;98330.38;5040979;28;20711;-77
2023/05/21 00:51:31;;;;;;;26.73;14.48;;;;;;;14.82;100.00;98337.28;5059172;28;20059;-77
2023/05/21 00:53:57;;;;;;;23.60;15.05;;;;;;;14.84;100.00;98344.13;5051441;28;20173;-77
2023/05/21 00:56:23;;;;;;;22.48;14.13;;;;;;;14.85;100.00;98353.13;5045424;28;20079;-77
2023/05/21 00:58:54;;;;;;;23.77;13.85;;;;;;;14.75;100.00;98333.84;5053970;28;20020;-76
2023/05/21 01:01:19;;;;;;;19.73;13.35;;;;;;;14.74;100.00;98334.94;5057366;28;20033;-77
2023/05/21 01:03:47;;;;;;;23.33;13.98;;;;;;;14.80;100.00;98353.88;5046892;28;20536;-77
2023/05/21 01:06:13;;;;;;;21.15;13.65;;;;;;;14.59;100.00;98327.28;5034349;28;20036;-77
2023/05/21 01:08:39;;;;;;;20.35;13.30;;;;;;;14.73;100.00;98357.81;5053620;28;20056;-76
2023/05/21 01:11:06;;;;;;;20.35;13.20;;;;;;;14.61;100.00;98331.41;5035814;28;20570;-77
2023/05/21 01:13:35;;;;;;;20.98;13.63;;;;;;;14.36;100.00;98309.09;5054199;28;20029;-76
2023/05/21 01:16:02;;;;;;;23.30;13.68;;;;;;;14.42;100.00;98324.47;5053841;28;20478;-77
2023/05/21 01:18:28;;;;;;;20.70;13.32;;;;;;;14.56;100.00;98339.47;5036458;28;20025;-77
2023/05/21 01:20:54;;;;;;;21.33;13.43;;;;;;;14.54;100.00;98330.75;5053537;28;20109;-76
2023/05/21 01:23:19;;;;;;;23.45;14.18;;;;;;;14.64;100.00;98352.72;5033874;28;20326;-76
2023/05/21 01:25:46;;;;;;;23.02;13.40;;;;;;;14.53;100.00;98339.97;5040523;28;20034;-76
2023/05/21 01:28:12;;;;;;;23.35;13.30;;;;;;;14.52;100.00;98327.41;5048987;28;20032;-77
2023/05/21 01:30:40;;;;;;;25.83;13.40;;;;;;;14.52;100.00;98323.84;5053890;28;20063;-76
2023/05/21 01:33:17;;;;;;;21.43;12.40;;;;;;;14.45;100.00;98329.41;5034448;28;20021;-77
2023/05/21 01:35:54;;;;;;;23.17;13.05;;;;;;;14.69;100.00;98347.38;5046361;28;20024;-77
2023/05/21 01:38:28;;;;;;;20.70;12.82;;;;;;;14.53;100.00;98329.06;5034699;28;20033;-77
2023/05/21 01:41:02;;;;;;;20.77;13.13;;;;;;;14.65;100.00;98348.94;5048728;28;20024;-77
2023/05/21 01:43:30;;;;;;;19.35;12.43;;;;;;;14.59;100.00;98347.19;5032918;28;20052;-76
2023/05/21 01:45:57;;;;;;;18.60;12.68;;;;;;;14.58;100.00;98350.13;5063593;28;20021;-77
2023/05/21 01:48:26;;;;;;;24.20;13.38;;;;;;;14.56;100.00;98350.38;5052715;28;20051;-76
2023/05/21 01:50:54;;;;;;;19.90;13.23;;;;;;;14.46;100.00;98331.91;5048847;28;20040;-77
2023/05/21 01:53:19;;;;;;;18.42;12.30;;;;;;;14.30;100.00;98307.31;5040802;28;20275;-77
2023/05/21 01:55:45;;;;;;;22.88;13.60;;;;;;;14.32;100.00;98308.72;5031527;28;20033;-76
2023/05/21 01:58:11;;;;;;;23.27;13.45;;;;;;;14.42;100.00;98324.47;5048557;28;20049;-77
2023/05/21 02:00:38;;;;;;;19.45;12.70;;;;;;;14.35;100.00;98326.47;5052797;28;20025;-77
2023/05/21 02:03:04;;;;;;;24.48;13.48;;;;;;;14.38;100.00;98335.00;5029272;28;20554;-77
2023/05/21 02:05:30;;;;;;;21.48;14.23;;;;;;;14.24;100.00;98307.22;5051016;28;20099;-77
2023/05/21 02:07:55;;;;;;;23.85;13.98;;;;;;;14.25;100.00;98318.91;5039282;28;20017;-76
2023/05/21 02:10:21;;;;;;;21.77;13.63;;;;;;;14.17;100.00;98311.97;5043170;28;20485;-76
2023/05/21 02:12:46;;;;;;;21.52;14.35;;;;;;;14.27;100.00;98335.00;5035647;28;20119;-77
2023/05/21 02:15:13;;;;;;;20.48;13.80;;;;;;;14.24;100.00;98342.59;5032037;28;20056;-75
2023/05/21 02:17:39;;;;;;;22.67;13.70;;;;;;;14.31;100.00;98336.19;5043724;28;20032;-76
2023/05/21 02:20:12;;;;;;;22.08;14.48;;;;;;;14.15;100.00;98324.16;5037458;28;20037;-76
2023/05/21 02:22:38;;;;;;;20.45;13.60;;;;;;;14.07;100.00;98324.50;5046434;28;20027;-75
2023/05/21 02:25:06;;;;;;;23.52;14.68;;;;;;;14.07;100.00;98332.66;5034677;28;20017;-76
2023/05/21 02:27:31;;;;;;;22.50;13.70;;;;;;;13.84;100.00;98296.25;5045101;28;20095;-76
2023/05/21 02:29:56;;;;;;;26.58;15.45;;;;;;;13.93;100.00;98322.03;5026631;28;20048;-75
2023/05/21 02:32:22;;;;;;;24.90;15.45;;;;;;;13.87;100.00;98316.72;5032753;28;20041;-76
2023/05/21 02:34:48;;;;;;;22.23;14.35;;;;;;;13.85;100.00;98324.28;5030893;28;20029;-76
2023/05/21 02:37:14;;;;;;;25.25;15.57;;;;;;;13.94;100.00;98333.75;5034327;28;20068;-75
2023/05/21 02:39:39;;;;;;;23.33;15.02;;;;;;;13.94;100.00;98339.19;5041500;28;20463;-76
2023/05/21 02:42:05;;;;;;;22.80;15.10;;;;;;;13.93;100.00;98337.50;5034571;28;20379;-76
2023/05/21 02:44:30;;;;;;;20.40;14.55;;;;;;;13.85;100.00;98321.56;5053281;28;20083;-75
2023/05/21 02:46:55;;;;;;;20.73;14.52;;;;;;;13.78;100.00;98319.78;5051438;28;20155;-75
2023/05/21 02:49:20;;;;;;;19.80;13.45;;;;;;;13.89;100.00;98344.50;5034273;28;20020;-76
2023/05/21 02:51:46;;;;;;;23.40;14.13;;;;;;;13.69;100.00;98323.91;5034563;28;20028;-76
2023/05/21 02:54:11;;;;;;;22.05;14.73;;;;;;;13.70;100.00;98325.59;5044572;28;20486;-76
2023/05/21 02:56:36;;;;;;;22.15;13.88;;;;;;;13.67;100.00;98326.03;5049781;28;20025;-76
2023/05/21 02:59:02;;;;;;;23.58;14.18;;;;;;;13.75;100.00;98324.84;5035634;28;20023;-76
2023/05/21 03:01:27;;;;;;;23.95;13.38;;;;;;;13.53;100.00;98306.41;5041893;28;20027;-77
2023/05/21 03:03:52;;;;;;;21.30;13.88;;;;;;;13.63;100.00;98324.84;5033318;28;20020;-77
2023/05/21 03:06:18;;;;;;;21.73;14.13;;;;;;;13.56;100.00;98324.13;5042325;28;20033;-76
2023/05/21 03:08:43;;;;;;;21.23;14.07;;;;;;;13.54;100.00;98332.50;5031118;28;20408;-76
2023/05/21 03:11:08;;;;;;;25.67;15.23;;;;;;;13.49;100.00;98334.28;5049527;28;20083;-76
2023/05/21 03:13:34;;;;;;;22.27;13.90;;;;;;;13.23;100.00;98297.44;5032895;28;20013;-76
2023/05/21 03:15:59;;;;;;;26.38;15.88;;;;;;;13.38;100.00;98322.31;5029640;28;20032;-75
2023/05/21 03:18:24;;;;;;;21.48;13.82;;;;;;;13.41;100.00;98324.56;5034053;28;20028;-75
2023/05/21 03:20:50;;;;;;;22.17;14.40;;;;;;;13.36;100.00;98328.00;5051770;28;20029;-76
2023/05/21 03:23:15;;;;;;;24.17;14.88;;;;;;;13.33;100.00;98323.03;5033584;28;20547;-75
2023/05/21 03:25:41;;;;;;;22.90;14.38;;;;;;;13.28;100.00;98319.34;5051604;28;20029;-75
2023/05/21 03:28:08;;;;;;;24.23;14.48;;;;;;;13.42;100.00;98339.00;5026465;28;20017;-76
2023/05/21 03:30:35;;;;;;;23.65;14.77;;;;;;;13.15;100.00;98295.91;5044023;28;20055;-75
2023/05/21 03:33:02;;;;;;;21.38;14.57;;;;;;;13.27;100.00;98318.53;5050818;28;20104;-76
2023/05/21 03:35:27;;;;;;;21.42;14.70;;;;;;;13.25;100.00;98315.19;5048476;28;20032;-76
2023/05/21 03:37:52;;;;;;;23.75;14.57;;;;;;;13.31;100.00;98332.50;5043696;28;20013;-76
2023/05/21 03:40:18;;;;;;;22.85;15.00;;;;;;;13.29;100.00;98340.88;5053186;28;20036;-76
2023/05/21 03:42:43;;;;;;;22.95;14.48;;;;;;;13.32;100.00;98343.09;5048351;28;20017;-76
2023/05/21 03:45:09;;;;;;;25.70;14.45;;;;;;;13.25;100.00;98330.66;5028367;28;20029;-76
2023/05/21 03:47:35;;;;;;;24.60;14.73;;;;;;;13.14;100.00;98307.84;5052071;28;20390;-76
2023/05/21 03:50:01;;;;;;;24.95;15.18;;;;;;;13.20;100.00;98334.06;5053589;28;20025;-76
2023/05/21 03:52:26;;;;;;;26.15;16.00;;;;;;;13.21;100.00;98337.63;5048512;28;20498;-76
2023/05/21 03:54:51;;;;;;;24.13;14.63;;;;;;;13.16;100.00;98325.56;5059572;28;20106;-76
2023/05/21 03:57:16;;;;;;;22.20;14.60;;;;;;;13.11;100.00;98324.59;5039661;28;20021;-77
2023/05/21 03:59:42;;;;;;;24.27;15.38;;;;;;;13.13;100.00;98328.75;5050187;28;20031;-76
2023/05/21 04:02:07;;;;;;;22.17;15.02;;;;;;;13.09;100.00;98316.66;5049789;28;20052;-77
2023/05/21 04:04:32;;;;;;;26.42;15.50;;;;;;;13.19;100.00;98332.41;5033177;28;20033;-77
2023/05/21 04:06:58;;;;;;;25.52;15.32;;;;;;;13.29;100.00;98345.47;5034237;28;20021;-76
2023/05/21 04:09:23;;;;;;;26.45;15.25;;;;;;;13.21;100.00;98337.63;5039254;28;20032;-77
2023/05/21 04:11:49;;;;;;;24.67;15.50;;;;;;;13.32;100.00;98348.53;5051567;28;20021;-77
2023/05/21 04:14:14;;;;;;;25.90;14.93;;;;;;;13.20;100.00;98336.78;5048204;28;20024;-76
2023/05/21 04:16:42;;;;;;;23.13;14.20;;;;;;;13.25;100.00;98334.19;5026812;28;20422;-77
2023/05/21 04:19:08;;;;;;;21.08;14.02;;;;;;;13.25;100.00;98326.03;5045580;28;20025;-77
2023/05/21 04:21:33;;;;;;;27.38;15.55;;;;;;;13.29;100.00;98335.44;5034382;28;20029;-77
2023/05/21 04:23:59;;;;;;;26.98;15.48;;;;;;;13.38;100.00;98335.91;5052155;28;20025;-77
2023/05/21 04:26:25;;;;;;;23.70;14.25;;;;;;;13.52;100.00;98353.69;5039835;28;20216;-77
2023/05/21 04:28:50;;;;;;;21.85;13.63;;;;;;;13.50;100.00;98344.09;5052515;28;20052;-77
2023/05/21 04:31:15;;;;;;;23.70;14.30;;;;;;;13.65;100.00;98354.50;5035946;28;20036;-77
2023/05/21 04:33:44;;;;;;;23.98;14.30;;;;;;;13.64;100.00;98344.72;5045994;28;20431;-77
2023/05/21 04:36:10;;;;;;;19.35;13.68;;;;;;;13.94;100.00;98358.22;5038047;28;20391;-77
2023/05/21 04:38:35;;;;;;;19.30;13.90;;;;;;;13.82;100.00;98337.28;5031802;28;20029;-78
2023/05/21 04:41:02;;;;;;;20.63;13.63;;;;;;;13.94;100.00;98339.19;5036601;28;20079;-77
2023/05/21 04:43:28;;;;;;;22.75;14.82;;;;;;;14.06;100.00;98350.06;5052491;28;20021;-77
2023/05/21 04:45:57;;;;;;;21.13;14.15;;;;;;;14.05;100.00;98354.66;5030213;28;20029;-77
2023/05/21 04:48:25;;;;;;;25.52;13.82;;;;;;;13.99;100.00;98336.56;5037548;28;20071;-77
2023/05/21 04:50:52;;;;;;;22.65;13.60;;;;;;;14.02;100.00;98353.25;5054905;28;20111;-76
2023/05/21 04:53:17;;;;;;;22.50;14.07;;;;;;;13.91;100.00;98332.34;5037008;28;20660;-77
2023/05/21 04:55:42;;;;;;;20.90;14.15;;;;;;;13.98;100.00;98319.41;5030901;28;20039;-76
2023/05/21 04:58:11;;;;;;;19.70;12.05;;;;;;;14.18;100.00;98334.56;5054881;28;20461;-77
2023/05/21 05:00:37;;;;;;;21.73;13.57;;;;;;;14.39;100.00;98352.16;5035831;28;20036;-77
2023/05/21 05:03:02;;;;;;;20.98;12.75;;;;;;;14.29;100.00;98320.09;5056192;28;20260;-77
2023/05/21 05:05:28;;;;;;;21.67;13.82;;;;;;;14.51;100.00;98350.22;5052162;28;20029;-76
2023/05/21 05:07:53;;;;;;;18.80;13.05;;;;;;;14.50;100.00;98326.81;5054067;28;20471;-76
2023/05/21 05:10:19;;;;;;;23.27;13.85;;;;;;;14.65;100.00;98340.78;5054795;28;20108;-77
2023/05/21 05:12:44;;;;;;;18.65;13.45;;;;;;;14.55;100.00;98317.97;5053004;28;20792;-77
2023/05/21 05:15:09;;;;;;;23.70;13.98;;;;;;;14.77;100.00;98354.34;5039496;28;20020;-76
2023/05/21 05:17:35;;;;;;;23.85;13.82;;;;;;;14.69;100.00;98332.94;5031983;28;20052;-76
2023/05/21 05:20:00;;;;;;;24.73;12.93;;;;;;;14.74;100.00;98321.31;5043758;28;20102;-76
2023/05/21 05:22:26;;;;;;;19.30;12.68;;;;;;;14.92;100.00;98329.31;5050916;28;20237;-77
2023/05/21 05:24:51;;;;;;;18.38;12.65;;;;;;;14.85;100.00;98317.72;5030232;28;20033;-77
2023/05/21 05:27:17;;;;;;;17.50;11.90;;;;;;;15.11;100.00;98322.56;5052945;28;20025;-77
2023/05/21 05:29:44;;;;;;;17.20;12.35;;;;;;;15.38;100.00;98337.47;5033130;28;20071;-77
2023/05/21 05:32:09;;;;;;;18.15;12.85;;;;;;;15.40;100.00;98319.00;5042192;28;20025;-77
2023/05/21 05:34:34;;;;;;;21.70;12.30;;;;;;;15.69;100.00;98317.03;5038042;28;20023;-77
2023/05/21 05:37:01;;;;;;;19.50;12.00;;;;;;;15.97;100.00;98324.31;5053520;28;20463;-77
2023/05/21 05:39:27;;;;;;;19.90;12.93;;;;;;;16.11;100.00;98313.84;5050929;28;20064;-77
2023/05/21 05:41:52;;;;;;;20.42;13.18;;;;;;;16.26;100.00;98327.72;5035347;28;20613;-77
2023/05/21 05:44:17;;;;;;;19.17;12.65;;;;;;;16.36;100.00;98330.59;5049714;28;20033;-77
2023/05/21 05:46:43;;;;;;;17.88;12.10;;;;;;;16.30;100.00;98325.34;5050524;28;21571;-77
2023/05/21 05:49:08;;;;;;;21.15;12.68;;;;;;;16.63;100.00;98321.66;5035773;28;20505;-77
2023/05/21 05:51:33;;;;;;;18.60;12.43;;;;;;;16.41;100.00;98314.28;5052060;28;20029;-79
2023/05/21 05:53:59;;;;;;;19.73;12.88;;;;;;;16.65;100.00;98316.75;5029258;28;20039;-77
2023/05/21 05:56:25;;;;;;;19.98;12.48;;;;;;;16.67;100.00;98333.72;5044589;28;20045;-75
2023/05/21 05:58:50;;;;;;;18.48;12.43;;;;;;;16.94;100.00;98317.41;5043023;28;20955;-75
2023/05/21 06:01:16;;;;;;;16.88;11.60;;;;;;;17.12;100.00;98338.09;5044294;28;20111;-76
2023/05/21 06:03:41;;;;;;;17.33;12.93;;;;;;;17.23;100.00;98312.50;5051674;28;20025;-78
2023/05/21 06:06:06;;;;;;;20.27;12.23;;;;;;;17.34;100.00;98309.84;5038756;28;20031;-77
2023/05/21 06:08:33;;;;;;;15.80;10.73;;;;;;;17.69;100.00;98317.56;5043233;28;20375;-77
2023/05/21 06:10:59;;;;;;;17.13;11.30;;;;;;;18.01;100.00;98303.03;5041627;28;20120;-76
2023/05/21 06:13:24;;;;;;;16.23;11.35;;;;;;;18.21;100.00;98302.31;5031344;28;20545;-77
2023/05/21 06:15:50;;;;;;;16.85;11.70;;;;;;;18.08;100.00;98315.41;5041068;28;20029;-76
2023/05/21 06:18:15;;;;;;;19.58;11.00;;;;;;;18.23;100.00;98305.63;5035775;28;20033;-75
2023/05/21 06:20:41;;;;;;;17.23;11.45;;;;;;;18.59;100.00;98318.41;5038796;28;20040;-76
2023/05/21 06:23:07;;;;;;;18.88;11.80;;;;;;;18.77;100.00;98300.69;5047875;28;20025;-74
2023/05/21 06:25:33;;;;;;;14.95;10.75;;;;;;;18.97;100.00;98321.06;5052477;28;20060;-76
2023/05/21 06:27:58;;;;;;;12.73;9.20;;;;;;;19.45;100.00;98308.78;5033571;28;20053;-75
2023/05/21 06:30:23;;;;;;;13.10;9.55;;;;;;;20.05;100.00;98328.28;5049147;28;20083;-73
2023/05/21 06:32:49;;;;;;;14.10;10.23;;;;;;;20.27;100.00;98310.66;5034235;28;20108;-75
2023/05/21 06:35:14;;;;;;;16.70;10.30;;;;;;;20.45;100.00;98312.00;5033035;28;20028;-75
2023/05/21 06:37:39;;;;;;;16.50;9.25;;;;;;;20.91;100.00;98303.59;5025127;28;20130;-76
2023/05/21 06:40:06;;;;;;;13.40;9.45;;;;;;;21.13;100.00;98290.25;5039048;28;20029;-77
2023/05/21 06:42:31;;;;;;;14.02;9.02;;;;;;;21.38;100.00;98297.53;5023540;28;20027;-72
2023/05/21 06:44:58;;;;;;;14.70;9.90;;;;;;;21.56;100.00;98329.06;5054515;28;20103;-73
2023/05/21 06:47:23;;;;;;;13.93;9.35;;;;;;;21.90;100.00;98317.19;5033018;28;20076;-77
2023/05/21 06:49:50;;;;;;;12.82;9.13;;;;;;;21.87;100.00;98301.25;5035018;28;20049;-74
2023/05/21 06:52:15;;;;;;;13.23;9.80;;;;;;;22.01;100.00;98304.19;5051852;28;20095;-76
2023/05/21 06:54:41;;;;;;;13.77;8.93;;;;;;;22.41;100.00;98302.13;5050035;28;20497;-76
2023/05/21 06:57:06;;;;;;;12.50;8.35;;;;;;;23.30;100.00;98329.97;5049595;28;20083;-75
2023/05/21 06:59:32;;;;;;;15.27;8.32;;;;;;;23.34;100.00;98319.97;5039415;28;20035;-72
2023/05/21 07:01:57;;;;;;;11.15;7.97;;;;;;;24.13;100.00;98335.84;5042784;28;20055;-71
2023/05/21 07:04:22;;;;;;;10.05;8.10;;;;;;;24.50;100.00;98331.31;5051102;28;20111;-71
2023/05/21 07:06:48;;;;;;;12.20;7.30;;;;;;;25.20;100.00;98316.31;5053251;28;20029;-76
2023/05/21 07:09:14;;;;;;;13.10;7.75;;;;;;;26.48;87.32;98326.19;5043464;28;20116;-70
2023/05/21 07:11:39;;;;;;;8.93;6.60;;;;;;;27.80;72.72;98317.78;5036798;28;20036;-73
2023/05/21 07:14:05;;;;;;;8.77;6.75;;;;;;;27.55;70.28;98325.81;5053554;28;20052;-80
2023/05/21 07:16:30;;;;;;;8.40;6.50;;;;;;;28.38;66.08;98317.19;5036927;28;20030;-76
2023/05/21 07:18:56;;;;;;;7.20;5.63;;;;;;;29.69;60.54;98308.13;5034163;28;20028;-77
2023/05/21 07:21:21;;;;;;;11.40;5.97;;;;;;;29.65;58.53;98302.38;5053054;28;20108;-74
2023/05/21 07:23:46;;;;;;;9.75;5.63;;;;;;;30.55;54.53;98311.16;5042887;28;20131;-78
2023/05/21 07:26:11;;;;;;;7.93;5.20;;;;;;;31.55;51.90;98305.16;5055154;28;20079;-72
2023/05/21 07:28:37;;;;;;;6.35;5.18;;;;;;;31.37;49.01;98290.63;5046007;28;20079;-73
2023/05/21 07:31:02;;;;;;;6.07;4.60;;;;;;;32.88;46.34;98323.53;5048053;28;20085;-75
2023/05/21 07:33:27;;;;;;;8.65;5.10;;;;;;;32.56;46.03;98308.75;5051021;28;20025;-77
2023/05/21 07:35:52;;;;;;;7.93;5.10;;;;;;;31.51;45.90;98302.25;5050632;28;20123;-77
2023/05/21 07:38:18;;;;;;;6.68;4.75;;;;;;;30.12;48.29;98302.09;5037351;28;20151;-74
2023/05/21 07:40:43;;;;;;;6.50;5.25;;;;;;;30.52;46.81;98315.47;5050523;28;20025;-76
2023/05/21 07:43:08;;;;;;;6.72;4.90;;;;;;;29.60;48.28;98293.41;5052507;28;20904;-76
2023/05/21 07:45:34;;;;;;;12.80;5.20;;;;;;;29.34;50.26;98318.69;5032525;28;20025;-76
2023/05/21 07:47:59;;;;;;;8.20;5.10;;;;;;;28.18;50.04;98285.34;5055487;28;20103;-77
2023/05/21 07:50:25;;;;;;;12.20;5.55;;;;;;;28.75;51.02;98312.00;5032854;28;20076;-77
2023/05/21 07:52:50;;;;;;;7.75;5.18;;;;;;;28.40;51.16;98308.50;5037685;28;20021;-77
2023/05/21 07:55:16;;;;;;;8.88;5.20;;;;;;;27.73;51.92;98305.22;5037863;28;20040;-76
2023/05/21 07:57:41;;;;;;;7.25;5.20;;;;;;;27.08;53.58;98293.06;5032236;28;20040;-77
2023/05/21 08:00:12;;;;;;;7.60;5.45;;;;;;;27.18;53.58;98282.84;5045426;28;20395;-76
2023/05/21 08:02:38;;;;;;;8.23;5.22;;;;;;;27.44;53.49;98302.28;5041246;28;20029;-74
2023/05/21 08:05:04;;;;;;;7.88;5.30;;;;;;;27.54;52.85;98299.19;5056217;28;20025;-76
2023/05/21 08:07:30;;;;;;;7.18;4.93;;;;;;;28.34;52.94;98296.75;5034270;28;20028;-75
2023/05/21 08:09:56;;;;;;;7.78;4.85;;;;;;;29.31;50.24;98305.44;5049451;28;20025;-72
2023/05/21 08:12:21;;;;;;;7.50;5.35;;;;;;;28.92;49.53;98279.63;5039408;28;20094;-76
2023/05/21 08:14:46;;;;;;;6.20;5.30;;;;;;;28.79;49.08;98298.19;5035317;28;20031;-74
2023/05/21 08:17:12;;;;;;;6.57;5.13;;;;;;;27.75;52.43;98316.00;5037959;28;20603;-73
2023/05/21 08:19:37;;;;;;;6.80;4.97;;;;;;;27.86;52.97;98313.72;5054626;28;20021;-73
2023/05/21 08:22:05;;;;;;;5.88;4.80;;;;;;;27.57;53.17;98298.53;5035981;28;20098;-75
2023/05/21 08:24:30;;;;;;;7.00;5.38;;;;;;;27.50;51.96;98295.41;5053497;28;20471;-73
2023/05/21 08:26:56;;;;;;;7.53;5.13;;;;;;;27.78;51.51;98312.56;5047988;28;20025;-75
2023/05/21 08:29:21;;;;;;;7.47;5.30;;;;;;;27.20;55.02;98317.47;5034750;28;20507;-71
2023/05/21 08:31:46;;;;;;;6.85;5.00;;;;;;;27.21;53.77;98312.72;5045694;28;20021;-71
2023/05/21 08:34:12;;;;;;;6.50;4.90;;;;;;;28.44;52.37;98309.50;5051364;28;20032;-72
2023/05/21 08:36:37;;;;;;;7.72;5.45;;;;;;;28.40;51.26;98316.84;5056792;28;20013;-71
2023/05/21 08:39:03;;;;;;;7.07;5.18;;;;;;;29.75;49.50;98298.38;5040676;28;20029;-71
2023/05/21 08:41:30;;;;;;;10.30;5.60;;;;;;;29.97;48.56;98297.16;5046232;28;20039;-71
2023/05/21 08:43:59;;;;;;;7.43;4.72;;;;;;;30.57;46.91;98318.00;5056211;28;20486;-78
2023/05/21 08:46:24;;;;;;;;;;;;;;;30.18;46.35;98313.84;5035082;28;20032;-72
2023/05/21 08:48:54;;;;;;;5.25;4.45;;;;;;;30.34;45.00;98314.84;5046103;28;20310;-72
2023/05/21 08:51:21;;;;;;;5.30;4.68;;;;;;;29.36;47.53;98321.97;5051434;28;20116;-71
2023/05/21 08:53:47;;;;;;;6.93;5.13;;;;;;;29.53;48.27;98313.47;5053423;28;20063;-72
2023/05/21 08:56:15;;;;;;;6.07;4.70;;;;;;;30.44;45.84;98315.56;5051412;28;20056;-72
2023/05/21 08:58:44;;;;;;;5.80;4.60;;;;;;;30.26;46.38;98304.59;5047167;28;20040;-72
2023/05/21 09:01:11;;;;;;;6.75;4.65;;;;;;;29.91;46.62;98316.09;5044619;28;20032;-73
2023/05/21 09:03:39;;;;;;;6.75;4.82;;;;;;;31.30;44.21;98315.56;5053781;28;20092;-72
2023/05/21 09:06:05;;;;;;;7.15;4.38;;;;;;;33.18;42.58;98316.28;5054788;28;20060;-72
2023/05/21 09:08:33;;;;;;;6.07;4.68;;;;;;;33.06;41.49;98307.19;5047866;28;20428;-72
2023/05/21 09:11:01;;;;;;;7.32;4.68;;;;;;;33.74;40.52;98323.53;5048320;28;20033;-72
2023/05/21 09:13:27;;;;;;;7.93;4.18;;;;;;;33.70;41.71;98319.84;5054929;28;20036;-72
2023/05/21 09:15:53;;;;;;;7.82;4.43;;;;;;;33.88;40.47;98313.75;5061460;28;20029;-72
2023/05/21 09:18:18;;;;;;;6.57;4.47;;;;;;;35.36;37.57;98313.16;5048211;28;20020;-72
2023/05/21 09:20:44;;;;;;;8.05;4.72;;;;;;;34.58;39.01;98313.53;5034874;28;20021;-72
2023/05/21 09:23:15;;;;;;;5.70;4.38;;;;;;;33.98;39.23;98324.38;5056448;28;20025;-73
2023/05/21 09:25:40;;;;;;;5.60;4.28;;;;;;;33.09;39.35;98323.25;5058462;28;20116;-72
2023/05/21 09:28:13;;;;;;;5.65;4.15;;;;;;;33.38;40.46;98319.13;5054718;28;20107;-72
2023/05/21 09:30:47;;;;;;;6.57;4.13;;;;;;;35.68;38.59;98295.91;5051992;28;20119;-73
2023/05/21 09:33:23;;;;;;;5.68;4.07;;;;;;;36.76;36.31;98304.31;5049626;28;20388;-72
2023/05/21 09:35:49;;;;;;;5.40;4.18;;;;;;;37.20;35.71;98325.19;5051312;28;20035;-72
2023/05/21 09:38:15;;;;;;;4.43;3.80;;;;;;;36.14;36.14;98301.28;5051939;28;20033;-72
2023/05/21 09:40:45;;;;;;;8.93;4.38;;;;;;;36.55;35.29;98304.09;5049656;28;20116;-72
2023/05/21 09:43:14;;;;;;;6.25;4.20;;;;;;;35.93;36.71;98313.91;5049084;28;20024;-72
2023/05/21 09:45:50;;;;;;;5.20;4.10;;;;;;;36.70;36.06;98311.50;5051104;28;20071;-72
2023/05/21 09:48:15;;;;;;;4.32;3.92;;;;;;;37.05;35.53;98315.84;5051972;28;20071;-71
2023/05/21 09:50:40;;;;;;;5.03;3.80;;;;;;;37.34;35.02;98313.19;5053281;28;20486;-72
2023/05/21 09:53:11;;;;;;;4.60;3.80;;;;;;;39.36;33.68;98297.03;5046735;28;20029;-72
2023/05/21 09:55:36;;;;;;;8.20;3.58;;;;;;;39.88;32.78;98294.44;5049048;28;20271;-73
2023/05/21 09:58:03;;;;;;;6.27;3.70;;;;;;;40.93;32.27;98308.72;5053194;28;20498;-73
2023/05/21 10:00:30;;;;;;;4.50;3.95;;;;;;;39.93;33.19;98301.72;5052645;28;20302;-73
2023/05/21 10:03:00;;;;;;;7.30;4.20;;;;;;;40.42;31.92;98299.78;5036033;28;20505;-72
2023/05/21 10:05:27;;;;;;;7.00;4.22;;;;;;;39.16;31.72;98293.81;5054487;28;20115;-73
2023/05/21 10:08:01;;;;;;;4.85;3.92;;;;;;;37.18;33.16;98291.75;5053926;28;20021;-73
2023/05/21 10:10:28;;;;;;;4.78;3.72;;;;;;;37.48;33.06;98296.31;5041268;28;20507;-72
2023/05/21 10:12:58;;;;;;;5.87;3.80;;;;;;;35.76;34.57;98291.97;5023614;28;20041;-74
2023/05/21 10:15:24;;;;;;;5.13;4.03;;;;;;;35.04;36.33;98301.41;5052297;28;20048;-72
2023/05/21 10:17:51;;;;;;;7.70;3.80;;;;;;;35.32;35.68;98284.97;5049210;28;20028;-73
2023/05/21 10:20:16;;;;;;;5.80;4.22;;;;;;;34.92;35.53;98282.75;5052916;28;20080;-71
2023/05/21 10:22:43;;;;;;;5.65;4.10;;;;;;;33.42;38.48;98299.56;5051943;28;20113;-73
2023/05/21 10:25:09;;;;;;;6.65;4.10;;;;;;;34.18;38.49;98283.91;5051702;28;20035;-72
2023/05/21 10:27:35;;;;;;;6.43;4.07;;;;;;;35.48;35.55;98293.22;5048093;28;20029;-72
2023/05/21 10:30:02;;;;;;;5.50;4.07;;;;;;;35.17;37.53;98285.16;5034511;28;20513;-72
2023/05/21 10:32:30;;;;;;;6.85;4.22;;;;;;;35.32;37.04;98287.78;5070554;28;20119;-73
2023/05/21 10:34:56;;;;;;;5.10;3.90;;;;;;;35.27;36.29;98260.00;5044384;28;20025;-73
2023/05/21 10:37:26;;;;;;;5.97;4.00;;;;;;;36.37;36.42;98268.13;5049077;28;20029;-72
2023/05/21 10:39:52;;;;;;;5.13;3.97;;;;;;;35.67;36.98;98283.03;5042393;28;20450;-72
2023/05/21 10:42:20;;;;;;;4.43;3.78;;;;;;;35.40;37.73;98280.25;5050472;28;20079;-71
2023/05/21 10:45:10;;;;;;;6.07;3.97;;;;;;;35.03;38.00;98282.91;5051767;28;20701;-72
2023/05/21 10:47:35;;;;;;;5.47;4.00;;;;;;;35.16;37.42;98281.53;5044481;28;20033;-73
2023/05/21 10:50:35;;;;;;;6.77;4.17;;;;;;;34.74;37.97;98282.47;5046220;28;20499;-73
2023/05/21 10:53:13;;;;;;;5.45;3.80;;;;;;;34.84;38.27;98275.41;5025564;28;20024;-73
2023/05/21 10:55:39;;;;;;;;;;;;;;;34.33;38.14;98275.75;5042413;28;20021;-73
2023/05/21 10:58:16;;;;;;;5.13;3.70;;;;;;;35.11;36.90;98273.44;5051389;28;19966;-71
2023/05/21 11:00:43;;;;;;;5.57;3.90;;;;;;;35.05;36.83;98258.84;5033925;28;20029;-73
2023/05/21 11:03:12;;;;;;;4.50;4.10;;;;;;;35.68;35.22;98267.75;5046918;28;20037;-72
2023/05/21 11:05:42;;;;;;;5.15;4.28;;;;;;;35.36;35.46;98262.50;5049826;28;20021;-73
2023/05/21 11:08:22;;;;;;;6.13;4.38;;;;;;;33.45;37.59;98285.63;5051432;28;20395;-73
2023/05/21 11:10:56;;;;;;;5.32;3.88;;;;;;;34.50;38.44;98278.03;5048865;28;20425;-73
2023/05/21 11:13:22;;;;;;;5.40;4.13;;;;;;;36.01;36.27;98255.66;5051770;28;20025;-73
2023/05/21 11:15:57;;;;;;;4.70;3.80;;;;;;;36.39;36.20;98270.53;5052377;28;20048;-74